< Typhoon 197011 1970 Season Typhoon 197013 >
Typhoon 197012 (CLARA)
General InformationTrack Information on Google Maps || NewsDisaster Info.ResourceGoogle EarthGE AnimationAtom FeedGeoJSON
Detalied Best Track (Time Zone = UTC)
Year Month Day Hour Lat. Long. Pressure (hPa) Wind (kt) Class Image Chart
1970 8 25 00 28.0 154.0 1008 0 2 -- Chart
1970 8 25 06 28.7 153.2 1008 0 2 -- Chart
1970 8 25 12 29.5 151.8 1006 0 2 -- Chart
1970 8 25 18 30.1 150.1 1004 0 2 -- Chart
1970 8 26 00 30.4 148.7 1000 0 2 -- Chart
1970 8 26 06 30.6 147.4 995 0 2 -- Chart
1970 8 26 12 31.3 146.5 990 0 9 -- Chart
1970 8 26 18 31.6 145.8 985 0 9 -- Chart
1970 8 27 00 31.9 145.0 980 0 9 -- Chart
1970 8 27 06 32.0 144.2 975 0 9 -- Chart
1970 8 27 12 32.3 143.7 975 0 9 -- Chart
1970 8 27 18 32.8 143.3 975 0 9 -- Chart
1970 8 28 00 33.1 143.0 970 0 9 -- Chart
1970 8 28 06 34.0 142.7 970 0 9 -- Chart
1970 8 28 12 34.6 142.4 970 0 9 -- Chart
1970 8 28 18 35.3 142.3 975 0 9 -- Chart
1970 8 29 00 35.7 142.4 970 0 9 -- Chart
1970 8 29 06 36.0 143.0 970 0 9 -- Chart
1970 8 29 12 36.2 143.9 975 0 9 -- Chart
1970 8 29 18 36.0 145.4 975 0 9 -- Chart
1970 8 30 00 35.6 147.5 975 0 9 -- Chart
1970 8 30 06 35.4 149.5 970 0 9 -- Chart
1970 8 30 12 34.9 151.6 970 0 9 -- Chart
1970 8 30 18 34.3 153.0 970 0 9 -- Chart
1970 8 31 00 34.0 154.2 960 0 9 -- Chart
1970 8 31 06 34.3 155.5 965 0 9 -- Chart
1970 8 31 12 34.6 156.8 975 0 9 -- Chart
1970 8 31 18 34.7 157.4 975 0 9 -- Chart
1970 9 1 00 34.9 157.9 975 0 9 -- Chart
1970 9 1 06 35.3 159.5 975 0 9 -- Chart
1970 9 1 12 35.4 161.1 980 0 9 -- Chart
1970 9 1 18 35.3 162.6 980 0 9 -- Chart
1970 9 2 00 34.9 163.6 980 0 9 -- Chart
1970 9 2 06 34.7 164.3 985 0 9 -- Chart
1970 9 2 12 34.7 165.2 990 0 9 -- Chart
1970 9 2 18 34.8 166.2 992 0 9 -- Chart
1970 9 3 00 35.1 167.4 992 0 9 -- Chart
1970 9 3 06 35.2 168.8 992 0 9 -- Chart
1970 9 3 12 35.5 170.0 992 0 9 -- Chart
1970 9 3 18 35.5 171.2 992 0 9 -- Chart
1970 9 4 00 36.1 172.5 992 0 9 -- Chart
1970 9 4 06 36.5 174.0 995 0 9 -- Chart
1970 9 4 12 37.0 175.5 995 0 9 -- Chart
1970 9 4 18 37.0 176.9 995 0 9 -- Chart
Japan Meteorological Agency Best Track Data | Correction Date : 1989-06-01
< Typhoon 197011 1970 Season Typhoon 197013 >

Help